Time;durP1;ratioP1;P1;durP2;ratioP2;P2;SDS_P1;SDS_P2;PMS_P1;PMS_P2;Temp;Humidity;BMP_temperature;BMP_pressure;BME280_temperature;BME280_humidity;BME280_pressure;Samples;Min_cycle;Max_cycle;Signal;HPM_P1;HPM_P2
2023/10/10 00:00:49;;;;;;;19.05;9.95;;;;;;;15.43;100.00;101116.88;8339985;28;20029;-61
2023/10/10 00:04:49;;;;;;;21.77;10.15;;;;;;;15.52;100.00;101111.34;8341351;28;20136;-62
2023/10/10 00:08:50;;;;;;;19.52;10.13;;;;;;;15.53;100.00;101113.06;8339660;28;20495;-61
2023/10/10 00:12:51;;;;;;;20.35;10.02;;;;;;;15.51;100.00;101120.56;8339513;28;20353;-61
2023/10/10 00:16:54;;;;;;;22.20;10.48;;;;;;;15.48;100.00;101120.00;8341051;28;20510;-61
2023/10/10 00:21:12;;;;;;;26.53;10.70;;;;;;;15.37;100.00;101118.38;8339182;28;20687;-61
2023/10/10 00:25:14;;;;;;;18.15;9.60;;;;;;;15.39;100.00;101116.38;8338220;28;20138;-59
2023/10/10 00:29:18;;;;;;;19.20;10.13;;;;;;;15.36;100.00;101116.66;8337939;28;20525;-61
2023/10/10 00:33:20;;;;;;;22.60;10.65;;;;;;;15.24;100.00;101111.56;8335365;28;20038;-63
2023/10/10 00:37:25;;;;;;;22.92;10.40;;;;;;;15.12;100.00;101119.13;8339185;28;20033;-63
2023/10/10 00:41:26;;;;;;;27.35;11.60;;;;;;;15.15;100.00;101113.38;8338253;28;20037;-63
2023/10/10 00:45:30;;;;;;;22.00;10.98;;;;;;;14.96;100.00;101102.63;8343018;28;20040;-62
2023/10/10 00:49:34;;;;;;;23.07;9.77;;;;;;;14.95;100.00;101100.06;8343199;28;20040;-63
2023/10/10 00:53:36;;;;;;;21.83;10.77;;;;;;;15.10;100.00;101101.25;8341057;28;20041;-64
2023/10/10 00:57:37;;;;;;;17.17;9.52;;;;;;;14.96;100.00;101093.59;8338162;28;20033;-62
2023/10/10 01:01:40;;;;;;;18.85;9.35;;;;;;;15.06;100.00;101092.50;8336521;28;20041;-63
2023/10/10 01:05:42;;;;;;;18.02;9.10;;;;;;;15.00;100.00;101093.13;8343475;28;20047;-64
2023/10/10 01:09:51;;;;;;;22.52;9.13;;;;;;;14.89;100.00;101085.22;8338393;28;20033;-64
2023/10/10 01:13:52;;;;;;;16.30;7.53;;;;;;;14.75;100.00;101088.44;8337904;28;20045;-61
2023/10/10 01:17:54;;;;;;;18.35;8.75;;;;;;;14.65;100.00;101079.50;8338821;28;20064;-61
2023/10/10 01:21:57;;;;;;;22.85;9.07;;;;;;;14.78;100.00;101071.81;8337129;28;20183;-60
2023/10/10 01:26:06;;;;;;;21.35;8.20;;;;;;;14.76;100.00;101073.81;8337504;28;20049;-61
2023/10/10 01:30:43;;;;;;;16.13;8.05;;;;;;;14.63;100.00;101067.91;8339169;28;20037;-61
2023/10/10 01:34:31;;;;;;;16.58;7.47;;;;;;;14.66;100.00;101070.31;8339799;28;20036;-60
2023/10/10 01:38:56;;;;;;;15.07;6.75;;;;;;;14.75;100.00;101066.66;8336982;28;20039;-61
2023/10/10 01:42:59;;;;;;;14.25;6.65;;;;;;;14.66;99.99;101056.69;8338032;28;20049;-60
2023/10/10 01:47:03;;;;;;;13.23;6.70;;;;;;;14.58;100.00;101056.59;8329218;28;20536;-61
2023/10/10 01:51:07;;;;;;;12.40;5.67;;;;;;;14.57;100.00;101049.47;8350769;28;20041;-61
2023/10/10 01:55:10;;;;;;;15.18;6.82;;;;;;;14.74;100.00;101059.53;8336631;28;20046;-61
2023/10/10 01:59:17;;;;;;;16.92;7.40;;;;;;;14.52;100.00;101049.03;8334131;28;20049;-61
2023/10/10 02:03:18;;;;;;;18.17;7.28;;;;;;;14.43;100.00;101050.00;8335953;28;20045;-61
2023/10/10 02:07:31;;;;;;;14.75;6.97;;;;;;;14.51;100.00;101041.91;8336651;28;20057;-61
2023/10/10 02:11:31;;;;;;;16.10;8.13;;;;;;;14.50;100.00;101037.47;8336616;28;20055;-61
2023/10/10 02:15:35;;;;;;;17.27;7.20;;;;;;;14.52;100.00;101032.72;8336884;28;20030;-61
2023/10/10 02:19:40;;;;;;;16.67;6.93;;;;;;;14.36;100.00;101032.53;8336569;28;20041;-61
2023/10/10 02:23:44;;;;;;;15.52;7.55;;;;;;;14.32;100.00;101030.28;8336222;28;20047;-61
2023/10/10 02:32:12;;;;;;;16.45;6.80;;;;;;;14.33;100.00;101026.56;8334204;28;20134;-60
2023/10/10 02:36:13;;;;;;;15.68;6.95;;;;;;;14.46;100.00;101027.94;8336887;28;20056;-59
2023/10/10 02:40:14;;;;;;;19.48;7.28;;;;;;;14.50;100.00;101023.88;8336200;28;20033;-59
2023/10/10 02:44:26;;;;;;;16.02;7.00;;;;;;;14.46;100.00;101019.75;8338590;28;20034;-60
2023/10/10 02:48:34;;;;;;;12.63;7.07;;;;;;;14.33;100.00;101016.53;8335318;28;20045;-60
2023/10/10 02:52:39;;;;;;;21.52;8.50;;;;;;;14.30;100.00;101011.38;8338318;28;20041;-60
2023/10/10 02:56:43;;;;;;;;;;;;;;;14.43;100.00;101017.34;8333228;28;20056;-60
2023/10/10 03:00:47;;;;;;;23.10;9.57;;;;;;;14.40;100.00;101014.94;8334233;28;19928;-60
2023/10/10 03:04:52;;;;;;;16.52;7.45;;;;;;;14.23;100.00;101018.44;8337445;28;20377;-60
2023/10/10 03:09:07;;;;;;;19.42;8.55;;;;;;;14.23;100.00;101021.19;8337012;28;20102;-59
2023/10/10 03:13:47;;;;;;;17.60;8.05;;;;;;;14.20;100.00;101016.00;8342117;28;20041;-61
2023/10/10 03:17:31;;;;;;;17.45;7.68;;;;;;;14.25;100.00;101019.16;8340348;28;20038;-60
2023/10/10 03:26:05;;;;;;;13.45;7.75;;;;;;;14.22;100.00;101014.00;8313541;28;20424;-59
2023/10/10 03:30:50;;;;;;;14.20;7.65;;;;;;;14.21;100.00;101004.09;8302483;28;20069;-60
2023/10/10 03:34:43;;;;;;;19.52;8.52;;;;;;;14.23;100.00;101012.13;8298065;28;20128;-60
2023/10/10 05:23:54;;;;;;;20.10;8.18;;;;;;;14.19;100.00;100994.41;8370281;28;20081;-62
2023/10/10 05:27:14;;;;;;;13.77;7.85;;;;;;;14.21;100.00;100990.50;8364415;28;20051;-62
2023/10/10 05:31:21;;;;;;;20.80;8.60;;;;;;;14.17;100.00;100983.69;8366427;28;20191;-62
2023/10/10 05:35:23;;;;;;;21.50;7.97;;;;;;;14.23;100.00;100990.34;8372834;28;20044;-63
2023/10/10 05:39:23;;;;;;;19.48;9.07;;;;;;;14.38;100.00;101000.63;8405669;28;20048;-63
2023/10/10 05:43:33;;;;;;;16.67;8.00;;;;;;;14.42;100.00;100998.44;8374107;28;20119;-63
2023/10/10 05:47:37;;;;;;;16.98;9.05;;;;;;;14.35;100.00;101002.78;8337630;28;20500;-63
2023/10/10 05:51:37;;;;;;;16.45;7.88;;;;;;;14.33;100.00;100988.50;8340529;28;20037;-62
2023/10/10 05:55:38;;;;;;;19.25;8.55;;;;;;;14.31;100.00;100985.06;8339343;28;20128;-63
2023/10/10 05:59:39;;;;;;;16.90;8.63;;;;;;;14.33;100.00;100988.50;8337713;28;20037;-63
2023/10/10 06:03:41;;;;;;;17.95;7.72;;;;;;;14.31;100.00;100975.03;8335220;28;20048;-63
2023/10/10 06:07:43;;;;;;;19.75;8.48;;;;;;;14.38;100.00;100980.69;8339589;28;20056;-62
2023/10/10 06:11:44;;;;;;;20.25;8.65;;;;;;;14.34;100.00;100977.47;8338020;28;20029;-62
2023/10/10 06:15:45;;;;;;;16.58;8.32;;;;;;;14.37;100.00;100979.00;8361703;28;20064;-63
2023/10/10 06:19:45;;;;;;;16.88;7.63;;;;;;;14.42;100.00;100966.66;8339039;28;20059;-63
2023/10/10 06:23:48;;;;;;;16.10;7.22;;;;;;;14.43;100.00;100968.38;8336823;28;20100;-62
2023/10/10 06:27:54;;;;;;;21.60;8.43;;;;;;;14.47;100.00;100964.31;8335354;28;20064;-63
2023/10/10 06:31:56;;;;;;;16.85;8.50;;;;;;;14.55;100.00;100971.72;8336719;28;20044;-59
2023/10/10 06:36:37;;;;;;;17.83;7.93;;;;;;;14.57;100.00;100962.38;8337455;28;20120;-60
2023/10/10 06:40:25;;;;;;;17.10;7.95;;;;;;;14.67;100.00;100971.31;8339266;28;20040;-60
2023/10/10 06:44:34;;;;;;;17.88;8.90;;;;;;;14.77;100.00;100977.56;8337034;28;20128;-62
2023/10/10 06:48:40;;;;;;;20.60;8.98;;;;;;;14.82;100.00;100974.38;8341790;28;20037;-65
2023/10/10 06:52:43;;;;;;;15.45;7.95;;;;;;;15.04;100.00;100984.75;8335777;28;20044;-63
2023/10/10 06:56:44;;;;;;;14.70;7.18;;;;;;;15.21;100.00;100987.44;8335172;28;20083;-63
2023/10/10 07:00:45;;;;;;;18.00;9.07;;;;;;;15.37;100.00;100993.03;8335033;28;20606;-63
2023/10/10 07:04:52;;;;;;;15.63;7.60;;;;;;;15.49;100.00;100986.31;8336533;28;20467;-61
2023/10/10 07:09:57;;;;;;;17.40;7.30;;;;;;;15.64;100.00;100984.69;8337286;28;20562;-60
2023/10/10 07:13:14;;;;;;;15.88;8.20;;;;;;;15.80;100.00;100980.34;8336537;28;20194;-61
2023/10/10 07:17:15;;;;;;;16.38;7.70;;;;;;;15.92;100.00;100968.97;8335312;28;20047;-61
2023/10/10 07:21:30;;;;;;;16.98;7.95;;;;;;;16.09;100.00;100967.19;8335769;28;20057;-61
2023/10/10 07:25:43;;;;;;;23.55;8.25;;;;;;;16.18;100.00;100968.91;8324161;28;20406;-61
2023/10/10 07:33:55;;;;;;;18.58;8.02;;;;;;;16.60;99.27;100972.47;8356833;28;20033;-61
2023/10/10 07:37:59;;;;;;;16.52;7.78;;;;;;;16.85;99.07;100974.22;8335547;28;20060;-60
2023/10/10 07:41:59;;;;;;;17.70;8.27;;;;;;;16.98;98.42;100971.81;8336129;28;20072;-61
2023/10/10 07:46:17;;;;;;;19.75;8.15;;;;;;;17.22;97.73;100971.81;8337170;28;20149;-59
2023/10/10 07:50:18;;;;;;;20.55;8.32;;;;;;;17.53;96.77;100972.81;8335793;28;20124;-60
2023/10/10 07:54:29;;;;;;;14.40;7.75;;;;;;;17.80;95.36;100969.66;8337121;28;20063;-59
2023/10/10 07:58:42;;;;;;;15.13;7.85;;;;;;;18.29;92.77;100965.69;8334461;28;20086;-59
2023/10/10 08:02:49;;;;;;;15.33;7.23;;;;;;;18.44;91.17;100958.47;8333593;28;20084;-60
2023/10/10 08:06:50;;;;;;;14.25;7.30;;;;;;;18.63;90.54;100957.97;8335485;28;20682;-64
2023/10/10 08:10:50;;;;;;;18.02;7.75;;;;;;;18.88;89.78;100950.44;8335522;28;20049;-63
2023/10/10 08:14:59;;;;;;;17.63;7.68;;;;;;;18.99;90.44;100950.84;8337628;28;20033;-59
2023/10/10 08:19:08;;;;;;;16.05;7.15;;;;;;;19.21;89.50;100958.19;8334134;28;20381;-60
2023/10/10 08:23:08;;;;;;;19.63;7.30;;;;;;;19.46;88.79;100956.94;8335865;28;20029;-61
2023/10/10 08:27:11;;;;;;;17.98;6.75;;;;;;;19.72;87.79;100950.16;8335775;28;20043;-63
2023/10/10 08:31:13;;;;;;;12.85;6.43;;;;;;;20.09;86.52;100947.28;8340166;28;20168;-61
2023/10/10 08:35:14;;;;;;;12.52;6.30;;;;;;;20.32;84.92;100943.41;8341498;28;20044;-59
2023/10/10 08:43:18;;;;;;;13.63;6.50;;;;;;;21.13;82.70;100932.00;8343015;28;20143;-58
2023/10/10 08:47:32;;;;;;;13.93;5.68;;;;;;;21.44;80.71;100940.75;8339807;28;20037;-58
2023/10/10 08:51:34;;;;;;;14.70;5.17;;;;;;;21.67;79.64;100930.31;8339545;28;20411;-59
2023/10/10 08:55:38;;;;;;;11.30;4.78;;;;;;;21.94;78.71;100937.69;8338877;28;20041;-60
2023/10/10 08:59:42;;;;;;;15.98;5.40;;;;;;;22.38;77.17;100946.34;8338308;28;20574;-59
2023/10/10 09:03:45;;;;;;;8.27;5.00;;;;;;;22.78;76.02;100928.91;8338373;28;20048;-60
2023/10/10 09:07:46;;;;;;;9.73;4.15;;;;;;;23.66;72.27;100935.94;8341445;28;20221;-61
2023/10/10 09:11:46;;;;;;;11.10;4.10;;;;;;;23.91;65.04;100925.91;8339428;28;20492;-59
2023/10/10 09:15:55;;;;;;;7.75;3.97;;;;;;;24.42;62.91;100926.78;8338251;28;20037;-58
2023/10/10 09:19:57;;;;;;;10.35;3.60;;;;;;;24.83;60.89;100927.22;8339303;28;20045;-59
2023/10/10 09:24:26;;;;;;;8.07;3.67;;;;;;;24.58;62.47;100927.09;8330102;28;20045;-59
2023/10/10 09:28:30;;;;;;;9.05;3.88;;;;;;;25.50;60.39;100929.25;8337788;28;20113;-60
2023/10/10 09:32:36;;;;;;;6.68;3.15;;;;;;;25.74;60.30;100934.72;8337089;28;20041;-59
2023/10/10 09:36:39;;;;;;;7.80;3.30;;;;;;;26.15;58.57;100932.19;8340986;28;20032;-60
2023/10/10 09:40:42;;;;;;;10.10;3.63;;;;;;;27.01;56.08;100929.09;8338193;28;20041;-60
2023/10/10 09:53:20;;;;;;;10.57;3.70;;;;;;;26.77;56.18;100934.56;8387129;27;20976;-60
2023/10/10 09:57:26;;;;;;;8.52;3.60;;;;;;;27.58;54.25;100917.22;8379430;27;20419;-60
2023/10/10 10:01:27;;;;;;;13.00;3.72;;;;;;;27.08;54.35;100918.72;8379613;28;20047;-62
2023/10/10 10:05:29;;;;;;;5.97;3.47;;;;;;;26.81;55.56;100916.34;8382630;27;20424;-60
2023/10/10 10:09:45;;;;;;;12.45;3.65;;;;;;;26.98;55.71;100915.69;8377106;28;20070;-60
2023/10/10 10:14:11;;;;;;;8.85;3.88;;;;;;;27.40;55.20;100917.34;8379195;27;20458;-60
2023/10/10 10:18:13;;;;;;;8.20;3.55;;;;;;;27.25;55.16;100911.41;8378939;27;20036;-61
2023/10/10 10:22:18;;;;;;;8.15;3.40;;;;;;;27.65;53.89;100923.50;8381692;28;20071;-61
2023/10/10 10:26:31;;;;;;;9.75;3.50;;;;;;;28.82;51.47;100915.53;8377905;27;20446;-63
2023/10/10 10:30:46;;;;;;;7.70;3.33;;;;;;;28.72;50.52;100914.50;8376504;27;20128;-63
2023/10/10 10:34:49;;;;;;;9.82;3.33;;;;;;;28.50;50.66;100911.53;8375786;27;20056;-63
2023/10/10 10:39:26;;;;;;;9.57;3.05;;;;;;;28.74;50.45;100907.56;8381116;28;20071;-64
2023/10/10 10:43:14;;;;;;;8.10;3.42;;;;;;;30.23;47.55;100911.19;8377194;28;20032;-63
2023/10/10 10:47:38;;;;;;;6.15;3.35;;;;;;;30.18;47.60;100911.09;8381191;27;20050;-63
2023/10/10 10:51:42;;;;;;;7.50;3.60;;;;;;;31.04;46.23;100903.72;8378443;27;20091;-63
2023/10/10 10:56:06;;;;;;;7.32;3.22;;;;;;;32.04;44.64;100912.88;8381649;27;20043;-64
2023/10/10 11:00:19;;;;;;;10.05;3.80;;;;;;;31.58;45.28;100900.56;8374352;27;20037;-63
2023/10/10 11:04:52;;;;;;;7.13;3.33;;;;;;;31.03;45.25;100908.44;8357608;28;20420;-64
2023/10/10 11:13:07;;;;;;;5.72;2.90;;;;;;;32.74;44.90;100904.78;8406100;27;20386;-63
2023/10/10 11:17:17;;;;;;;17.08;3.50;;;;;;;31.89;45.15;100901.63;8369297;28;20099;-63
2023/10/10 11:21:27;;;;;;;8.50;3.38;;;;;;;34.05;41.03;100894.44;8364732;28;20098;-64
2023/10/10 11:25:41;;;;;;;10.65;3.60;;;;;;;33.42;41.28;100895.94;8354210;28;20041;-62
2023/10/10 11:29:45;;;;;;;11.55;3.92;;;;;;;34.31;40.19;100881.13;8364856;28;20537;-63
2023/10/10 11:33:48;;;;;;;8.93;3.78;;;;;;;34.36;40.71;100872.69;8362458;28;20561;-63
2023/10/10 11:37:59;;;;;;;8.05;3.90;;;;;;;34.05;40.63;100871.97;8365553;28;20387;-60
2023/10/10 11:42:04;;;;;;;6.22;3.53;;;;;;;34.22;41.95;100868.81;8363741;28;20033;-59
2023/10/10 11:46:05;;;;;;;7.95;3.92;;;;;;;33.19;41.52;100862.84;8366026;28;20049;-58
2023/10/10 11:50:06;;;;;;;8.45;3.33;;;;;;;31.84;44.07;100865.25;8363288;28;20087;-58
2023/10/10 11:54:06;;;;;;;7.95;3.92;;;;;;;32.06;43.58;100857.50;8365325;28;20091;-59
2023/10/10 11:58:08;;;;;;;15.38;3.95;;;;;;;32.21;41.49;100850.00;8360073;28;20033;-61
2023/10/10 12:02:13;;;;;;;8.07;4.15;;;;;;;32.45;41.83;100850.41;8361260;28;20060;-58
2023/10/10 12:06:14;;;;;;;6.13;3.53;;;;;;;32.79;40.76;100840.38;8362505;28;20037;-59
2023/10/10 12:10:17;;;;;;;11.63;3.67;;;;;;;33.58;38.58;100844.31;8364321;28;20040;-61
2023/10/10 12:14:19;;;;;;;15.20;4.40;;;;;;;33.94;38.79;100839.47;8364223;27;20136;-59
2023/10/10 12:18:20;;;;;;;11.10;4.00;;;;;;;33.47;39.07;100839.84;8362122;28;20044;-58
2023/10/10 12:22:22;;;;;;;13.45;3.75;;;;;;;32.33;39.78;100841.38;8349677;28;20040;-60
2023/10/10 12:26:23;;;;;;;8.90;3.65;;;;;;;32.17;40.13;100826.47;8342053;28;20045;-59
2023/10/10 12:30:25;;;;;;;13.48;4.13;;;;;;;32.17;39.59;100826.47;8336722;28;20033;-58
2023/10/10 12:34:25;;;;;;;7.80;4.20;;;;;;;31.79;39.79;100818.47;8340950;28;20041;-59
2023/10/10 12:38:31;;;;;;;11.15;3.75;;;;;;;31.63;41.11;100813.06;8341428;28;20389;-60
2023/10/10 12:42:33;;;;;;;8.82;3.67;;;;;;;31.51;41.02;100813.28;8340069;28;20403;-59
2023/10/10 12:46:34;;;;;;;11.32;3.70;;;;;;;30.23;42.29;100802.34;8341818;28;20072;-59
2023/10/10 12:50:37;;;;;;;7.55;3.30;;;;;;;29.16;44.29;100803.09;8339172;28;20359;-59
2023/10/10 12:54:38;;;;;;;11.00;3.90;;;;;;;28.42;45.04;100800.63;8340231;28;20183;-60
2023/10/10 12:58:43;;;;;;;12.05;3.67;;;;;;;28.43;45.93;100799.53;8337772;28;20082;-60
2023/10/10 13:02:44;;;;;;;15.38;3.95;;;;;;;28.45;44.67;100797.34;8337467;28;20049;-59
2023/10/10 13:06:51;;;;;;;13.60;4.50;;;;;;;28.49;44.66;100793.00;8341341;28;20495;-60
2023/10/10 13:10:55;;;;;;;17.45;3.78;;;;;;;28.35;45.11;100792.44;8338530;28;20095;-59
2023/10/10 13:15:16;;;;;;;8.48;4.05;;;;;;;28.43;44.30;100793.97;8340562;28;20078;-61
2023/10/10 13:19:23;;;;;;;10.30;3.60;;;;;;;28.71;44.14;100791.16;8338570;28;20056;-60
2023/10/10 13:23:23;;;;;;;9.40;3.25;;;;;;;28.55;44.71;100787.25;8339630;28;20037;-61
2023/10/10 13:27:25;;;;;;;12.57;4.70;;;;;;;28.48;43.61;100785.72;8332653;28;20241;-63
2023/10/10 13:31:29;;;;;;;8.52;3.30;;;;;;;28.24;43.48;100784.16;8337832;28;20040;-63
2023/10/10 13:35:29;;;;;;;7.25;3.63;;;;;;;28.30;42.90;100786.75;8330743;28;20037;-62
2023/10/10 13:39:33;;;;;;;7.78;3.55;;;;;;;28.27;43.67;100772.53;8340039;28;20033;-59
2023/10/10 13:43:33;;;;;;;7.15;3.78;;;;;;;28.19;43.83;100781.25;8338073;28;20042;-59
2023/10/10 13:47:36;;;;;;;8.55;4.20;;;;;;;27.92;44.69;100769.03;8340226;28;20095;-60
2023/10/10 13:51:39;;;;;;;8.88;4.00;;;;;;;27.84;45.11;100770.25;8337382;28;20037;-61
2023/10/10 13:55:42;;;;;;;9.73;3.55;;;;;;;28.07;44.36;100761.84;8337325;28;20041;-60
2023/10/10 13:59:47;;;;;;;9.70;3.97;;;;;;;28.06;46.60;100767.66;8336008;28;20078;-63
2023/10/10 14:03:48;;;;;;;8.23;3.70;;;;;;;28.25;45.57;100758.88;8336634;28;20483;-64
2023/10/10 14:07:49;;;;;;;8.35;3.97;;;;;;;28.01;47.49;100753.66;8336040;28;20038;-63
2023/10/10 14:11:51;;;;;;;7.40;3.90;;;;;;;28.08;46.79;100762.69;8339480;28;20036;-63
2023/10/10 14:15:56;;;;;;;7.40;3.53;;;;;;;27.96;46.85;100759.97;8337436;28;20041;-64
2023/10/10 14:19:58;;;;;;;7.57;3.53;;;;;;;28.02;47.12;100758.13;8337963;28;20543;-63
2023/10/10 14:24:04;;;;;;;9.32;3.67;;;;;;;27.75;46.96;100757.81;8336191;28;20030;-64
2023/10/10 14:28:05;;;;;;;11.52;3.85;;;;;;;27.69;47.85;100757.97;8335971;28;20132;-61
2023/10/10 14:32:10;;;;;;;9.38;3.92;;;;;;;27.73;48.45;100751.69;8333353;28;20044;-61
2023/10/10 14:36:11;;;;;;;8.80;3.72;;;;;;;27.51;48.99;100756.22;8335573;28;20446;-61
2023/10/10 14:40:11;;;;;;;9.18;3.80;;;;;;;27.59;50.34;100752.19;8337517;28;20183;-61
2023/10/10 14:44:12;;;;;;;9.88;3.65;;;;;;;27.36;50.25;100746.69;8336118;28;20041;-61
2023/10/10 14:48:18;;;;;;;12.65;3.70;;;;;;;27.20;50.54;100752.97;8336138;28;20115;-61
2023/10/10 14:52:19;;;;;;;7.38;2.80;;;;;;;27.08;52.04;100735.47;8337168;28;20033;-61
2023/10/10 14:56:24;;;;;;;9.48;2.83;;;;;;;27.01;51.19;100746.69;8332159;28;20124;-61
2023/10/10 15:00:27;;;;;;;7.55;2.80;;;;;;;26.98;53.21;100746.38;8334820;28;20530;-61
2023/10/10 15:04:29;;;;;;;11.75;2.85;;;;;;;26.81;52.30;100743.47;8323702;28;20199;-61
2023/10/10 15:08:31;;;;;;;6.97;2.70;;;;;;;26.89;50.33;100739.47;8333125;28;20041;-62
2023/10/10 15:12:33;;;;;;;8.77;3.40;;;;;;;26.86;53.04;100745.50;8333363;28;20033;-61
2023/10/10 15:16:35;;;;;;;8.50;3.20;;;;;;;26.77;52.71;100737.53;8333160;28;20038;-61
2023/10/10 15:20:35;;;;;;;4.55;2.35;;;;;;;26.54;51.87;100737.50;8334021;28;20380;-61
2023/10/10 15:24:38;;;;;;;4.78;2.28;;;;;;;26.64;51.24;100740.56;8334289;28;20037;-61
2023/10/10 15:28:40;;;;;;;6.40;2.40;;;;;;;26.44;51.50;100726.13;8336945;28;20095;-61
2023/10/10 15:32:51;;;;;;;5.20;2.40;;;;;;;26.35;51.50;100733.09;8335493;28;20042;-60
2023/10/10 15:36:52;;;;;;;5.28;2.72;;;;;;;26.30;51.85;100735.75;8339237;28;20045;-60
2023/10/10 15:40:53;;;;;;;6.70;2.42;;;;;;;26.17;52.28;100735.94;8337650;28;20087;-64
2023/10/10 15:44:53;;;;;;;8.40;2.78;;;;;;;26.03;53.24;100728.94;8342673;28;20049;-64
2023/10/10 15:48:54;;;;;;;6.78;2.67;;;;;;;25.80;53.89;100728.78;8329529;28;20033;-60
2023/10/10 15:52:54;;;;;;;6.10;2.30;;;;;;;25.62;54.74;100739.06;8333220;28;20457;-60
2023/10/10 15:56:55;;;;;;;6.40;2.38;;;;;;;25.43;55.74;100734.63;8333815;28;20484;-60
2023/10/10 16:00:57;;;;;;;9.00;2.70;;;;;;;25.25;56.38;100735.44;8358606;28;20073;-63
2023/10/10 16:05:00;;;;;;;8.57;2.75;;;;;;;25.17;56.63;100730.22;8333359;28;20041;-62
2023/10/10 16:09:11;;;;;;;6.03;2.72;;;;;;;24.97;57.11;100726.81;8338550;28;20042;-63
2023/10/10 16:13:11;;;;;;;4.18;2.45;;;;;;;24.89;58.87;100727.13;8334602;28;20353;-62
2023/10/10 16:17:15;;;;;;;10.98;2.80;;;;;;;24.53;60.60;100724.25;8332032;28;20732;-63
2023/10/10 16:21:16;;;;;;;9.07;3.17;;;;;;;24.22;62.27;100718.75;8341863;28;20495;-63
2023/10/10 16:25:17;;;;;;;11.05;3.13;;;;;;;24.10;63.06;100712.25;8342718;28;20045;-63
2023/10/10 16:29:19;;;;;;;7.93;2.83;;;;;;;23.80;65.06;100724.94;8335293;28;20184;-62
2023/10/10 16:33:23;;;;;;;13.25;2.95;;;;;;;23.56;65.97;100706.38;8335487;28;20423;-62
2023/10/10 16:37:24;;;;;;;9.77;3.40;;;;;;;23.71;64.74;100717.97;8339788;28;20048;-62
2023/10/10 16:41:25;;;;;;;16.60;6.32;;;;;;;23.74;62.72;100717.53;8337654;28;20044;-62
2023/10/10 16:45:32;;;;;;;13.25;3.85;;;;;;;23.54;65.81;100711.28;8340751;28;20111;-63
2023/10/10 16:49:36;;;;;;;6.80;2.88;;;;;;;22.87;68.36;100709.78;8369709;28;20048;-63
2023/10/10 16:53:40;;;;;;;6.78;2.58;;;;;;;22.38;70.44;100714.91;8354278;28;20064;-62
2023/10/10 16:57:41;;;;;;;5.25;2.10;;;;;;;22.25;69.56;100714.91;8337513;28;20040;-62
2023/10/10 17:01:42;;;;;;;14.77;2.85;;;;;;;22.40;68.04;100718.31;8340898;28;20525;-64
2023/10/10 17:05:50;;;;;;;7.85;3.22;;;;;;;22.33;68.50;100717.47;8335079;28;20044;-63
2023/10/10 17:09:51;;;;;;;7.43;2.75;;;;;;;21.92;72.08;100719.50;8334638;28;20048;-60
2023/10/10 17:13:53;;;;;;;6.75;3.15;;;;;;;21.46;73.74;100718.50;8338458;28;20120;-61
2023/10/10 17:17:57;;;;;;;7.85;2.88;;;;;;;21.25;74.02;100715.88;8341196;28;20036;-60
2023/10/10 17:21:59;;;;;;;9.25;2.85;;;;;;;21.28;72.96;100720.97;8337152;28;20072;-62
2023/10/10 17:25:59;;;;;;;11.57;3.22;;;;;;;21.18;73.06;100715.00;8337595;28;20511;-61
2023/10/10 17:29:59;;;;;;;4.93;3.00;;;;;;;21.28;71.60;100704.47;8336416;28;20414;-64
2023/10/10 17:34:01;;;;;;;8.40;2.97;;;;;;;21.44;70.82;100709.63;8341853;28;20487;-64
2023/10/10 17:38:01;;;;;;;9.52;3.53;;;;;;;21.42;70.46;100705.38;8337021;28;20036;-64
2023/10/10 17:42:02;;;;;;;11.07;3.80;;;;;;;21.36;69.91;100709.81;8338972;28;20121;-64
2023/10/10 17:46:03;;;;;;;10.18;3.47;;;;;;;21.48;68.58;100705.41;8338506;28;20395;-64
2023/10/10 17:50:04;;;;;;;12.68;3.22;;;;;;;21.18;69.72;100706.75;8337293;28;20033;-64
2023/10/10 17:54:04;;;;;;;11.10;3.63;;;;;;;21.08;69.84;100698.88;8336814;28;20034;-64
2023/10/10 17:58:05;;;;;;;8.75;3.20;;;;;;;21.01;70.11;100708.13;8340892;28;20136;-64
2023/10/10 18:02:08;;;;;;;8.65;3.70;;;;;;;20.82;70.75;100714.34;8334857;28;20033;-61
2023/10/10 18:06:21;;;;;;;9.80;3.40;;;;;;;20.75;71.04;100713.44;8336951;28;20040;-62
2023/10/10 18:10:23;;;;;;;11.05;3.88;;;;;;;20.61;71.01;100711.66;8338041;28;20036;-61
2023/10/10 18:14:23;;;;;;;12.55;3.45;;;;;;;20.59;71.07;100713.78;8330957;28;20037;-61
2023/10/10 18:18:28;;;;;;;10.05;3.85;;;;;;;20.42;71.55;100704.13;8341245;28;20048;-61
2023/10/10 18:22:29;;;;;;;9.73;4.32;;;;;;;20.13;72.82;100712.53;8334067;28;20418;-62
2023/10/10 18:26:30;;;;;;;11.32;3.92;;;;;;;20.12;72.89;100705.28;8338828;28;20233;-62
2023/10/10 18:30:36;;;;;;;10.25;3.83;;;;;;;20.08;72.95;100698.50;8339022;28;20527;-61
2023/10/10 18:34:41;;;;;;;11.05;3.33;;;;;;;19.98;73.05;100689.78;8360919;28;20029;-61
2023/10/10 18:38:41;;;;;;;9.50;4.30;;;;;;;19.76;73.78;100693.56;8334701;28;20044;-61
2023/10/10 18:42:42;;;;;;;10.65;3.47;;;;;;;19.73;73.81;100693.97;8335026;28;20045;-65
2023/10/10 18:46:43;;;;;;;11.50;4.43;;;;;;;19.73;73.76;100682.97;8334176;28;20044;-64
2023/10/10 18:50:44;;;;;;;10.00;4.07;;;;;;;19.71;73.76;100690.56;8334076;28;20518;-62
2023/10/10 18:54:44;;;;;;;11.35;4.38;;;;;;;19.77;73.42;100687.03;8336231;28;20387;-62
2023/10/10 18:58:46;;;;;;;13.98;5.10;;;;;;;19.94;73.14;100678.31;8331936;28;20164;-62
2023/10/10 19:02:47;;;;;;;14.40;4.95;;;;;;;19.94;73.50;100680.25;8332441;28;20447;-62
2023/10/10 19:06:49;;;;;;;11.15;4.40;;;;;;;20.00;73.58;100673.97;8334011;28;20063;-62
2023/10/10 19:10:50;;;;;;;11.32;4.13;;;;;;;20.06;73.73;100679.50;8330867;28;20549;-64
2023/10/10 19:14:51;;;;;;;13.50;4.15;;;;;;;20.03;74.14;100679.06;8338428;28;20038;-64
2023/10/10 19:18:51;;;;;;;14.50;4.88;;;;;;;19.94;74.81;100674.75;8363724;28;20077;-63
2023/10/10 19:22:54;;;;;;;9.10;4.65;;;;;;;19.89;75.66;100660.75;8339373;28;20045;-62
2023/10/10 19:26:55;;;;;;;11.52;4.82;;;;;;;19.89;76.26;100667.13;8331873;28;20422;-62
2023/10/10 19:30:57;;;;;;;10.20;3.95;;;;;;;19.87;76.85;100668.31;8333093;28;20049;-62
2023/10/10 19:34:57;;;;;;;6.93;3.78;;;;;;;19.88;77.21;100664.56;8339848;28;20103;-62
2023/10/10 19:38:58;;;;;;;9.95;4.28;;;;;;;19.91;77.60;100665.00;8373897;28;20040;-62
2023/10/10 19:42:59;;;;;;;12.43;4.82;;;;;;;19.91;77.98;100653.19;8374362;28;20033;-63
2023/10/10 19:47:00;;;;;;;12.25;4.65;;;;;;;19.90;78.26;100662.44;8382610;28;20063;-63
2023/10/10 19:51:05;;;;;;;8.38;4.35;;;;;;;19.81;78.62;100659.00;8371016;28;20094;-64
2023/10/10 19:55:07;;;;;;;10.40;5.53;;;;;;;19.68;79.23;100647.03;8369922;28;20110;-64
2023/10/10 19:59:07;;;;;;;12.45;4.50;;;;;;;19.49;79.86;100654.03;8370111;28;20384;-64
2023/10/10 20:03:09;;;;;;;12.20;5.07;;;;;;;19.19;81.28;100642.25;8371454;28;20139;-65
2023/10/10 20:07:10;;;;;;;9.23;4.93;;;;;;;19.04;82.14;100646.09;8372158;28;20029;-64
2023/10/10 20:11:11;;;;;;;11.85;4.68;;;;;;;19.07;81.93;100635.59;8372585;28;20041;-65
2023/10/10 20:15:14;;;;;;;10.88;4.88;;;;;;;18.98;82.38;100638.63;8369554;28;20525;-65
2023/10/10 20:19:17;;;;;;;9.55;4.35;;;;;;;18.91;82.29;100635.78;8371921;28;20068;-64
2023/10/10 20:23:17;;;;;;;11.85;5.18;;;;;;;18.95;82.23;100633.53;8373365;28;20044;-65
2023/10/10 20:27:19;;;;;;;9.43;4.45;;;;;;;18.98;81.61;100639.50;8377707;28;20098;-64
2023/10/10 20:31:22;;;;;;;10.50;5.03;;;;;;;18.95;81.48;100634.41;8373420;28;20041;-64
2023/10/10 20:35:31;;;;;;;8.65;4.60;;;;;;;18.88;81.88;100627.97;8373200;28;20044;-64
2023/10/10 20:39:32;;;;;;;8.32;4.25;;;;;;;18.89;81.43;100635.16;8361105;28;20048;-64
2023/10/10 20:43:32;;;;;;;8.20;4.55;;;;;;;18.91;80.84;100638.53;8386452;28;20119;-65
2023/10/10 20:47:32;;;;;;;11.98;5.05;;;;;;;19.08;80.58;100640.03;8383829;28;20036;-64
2023/10/10 20:51:34;;;;;;;10.68;4.32;;;;;;;18.92;80.64;100621.06;8379519;28;20328;-65
2023/10/10 20:55:34;;;;;;;9.90;4.15;;;;;;;18.84;80.98;100632.13;8394577;28;20036;-64